Time;durP1;ratioP1;P1;durP2;ratioP2;P2;SDS_P1;SDS_P2;PMS_P1;PMS_P2;Temp;Humidity;BMP_temperature;BMP_pressure;BME280_temperature;BME280_humidity;BME280_pressure;Samples;Min_cycle;Max_cycle;Signal;HPM_P1;HPM_P2
2023/06/21 00:00:12;;;;;;;23.50;22.30;;;23.30;1.00;;;;;;4936988;29;20978;-81
2023/06/21 00:02:41;;;;;;;23.60;22.40;;;23.20;1.00;;;;;;4931817;28;20922;-81
2023/06/21 00:05:10;;;;;;;23.97;22.57;;;23.10;1.00;;;;;;4921545;29;20596;-82
2023/06/21 00:07:54;;;;;;;23.20;21.90;;;23.00;23.50;;;;;;4933480;29;20993;-83
2023/06/21 00:10:29;;;;;;;23.67;22.43;;;22.90;79.10;;;;;;4932984;29;20505;-83
2023/06/21 00:12:58;;;;;;;24.20;23.00;;;22.80;94.30;;;;;;4935284;29;21026;-84
2023/06/21 00:15:28;;;;;;;23.50;22.20;;;22.80;99.90;;;;;;4931031;29;21068;-81
2023/06/21 00:18:03;;;;;;;23.80;22.50;;;22.70;99.90;;;;;;4927988;29;20467;-83
2023/06/21 00:20:31;;;;;;;23.87;22.57;;;22.70;99.90;;;;;;4932685;29;20460;-83
2023/06/21 00:23:00;;;;;;;23.37;22.17;;;22.70;99.90;;;;;;4930450;28;20475;-83
2023/06/21 00:25:28;;;;;;;24.60;23.40;;;22.60;99.90;;;;;;4929613;29;20461;-82
2023/06/21 00:27:56;;;;;;;24.03;22.90;;;22.60;99.90;;;;;;4931735;29;20796;-83
2023/06/21 00:30:24;;;;;;;23.93;22.73;;;22.60;99.90;;;;;;4934729;29;21097;-83
2023/06/21 00:32:54;;;;;;;23.20;22.10;;;22.60;99.90;;;;;;4933263;28;20487;-83
2023/06/21 00:35:22;;;;;;;24.10;22.60;;;22.60;99.90;;;;;;4935234;29;20519;-83
2023/06/21 00:37:50;;;;;;;24.77;23.53;;;22.60;99.90;;;;;;4934451;29;20445;-83
2023/06/21 00:40:22;;;;;;;25.07;23.67;;;22.60;99.90;;;;;;4931577;29;20453;-83
2023/06/21 00:42:50;;;;;;;24.67;23.20;;;22.70;99.90;;;;;;4937117;29;20535;-81
2023/06/21 00:45:19;;;;;;;23.87;22.47;;;22.80;99.90;;;;;;4936786;29;20995;-83
2023/06/21 00:47:47;;;;;;;24.17;22.97;;;22.80;99.90;;;;;;4938093;29;20489;-83
2023/06/21 00:50:17;;;;;;;23.83;22.73;;;22.80;99.90;;;;;;4935172;28;20477;-83
2023/06/21 00:52:46;;;;;;;23.73;22.53;;;22.70;99.90;;;;;;4937144;29;20484;-80
2023/06/21 00:55:17;;;;;;;23.80;22.57;;;22.60;99.90;;;;;;4932145;29;20468;-81
2023/06/21 00:57:45;;;;;;;24.67;23.37;;;22.60;99.90;;;;;;4936312;29;20447;-83
2023/06/21 01:00:20;;;;;;;24.67;23.20;;;22.70;99.90;;;;;;4938513;29;20502;-83
2023/06/21 01:02:48;;;;;;;23.67;22.17;;;22.70;99.90;;;;;;4932599;28;20558;-82
2023/06/21 01:05:18;;;;;;;24.00;22.90;;;22.70;99.90;;;;;;4934937;29;20449;-84
2023/06/21 01:07:53;;;;;;;24.23;22.93;;;22.60;99.90;;;;;;4937808;29;20461;-82
2023/06/21 01:10:27;;;;;;;24.70;23.13;;;22.60;99.90;;;;;;4934796;29;20465;-81
2023/06/21 01:13:08;;;;;;;23.90;22.60;;;22.60;99.90;;;;;;4940117;29;20482;-82
2023/06/21 01:15:42;;;;;;;25.43;23.90;;;22.50;99.90;;;;;;4939594;29;20465;-84
2023/06/21 01:18:14;;;;;;;24.43;23.13;;;22.40;99.90;;;;;;4936636;28;20526;-82
2023/06/21 01:20:49;;;;;;;25.63;23.90;;;22.40;99.90;;;;;;4936316;29;20977;-84
2023/06/21 01:23:30;;;;;;;24.67;23.33;;;22.40;99.90;;;;;;4935196;28;20484;-81
2023/06/21 01:26:11;;;;;;;24.30;23.00;;;22.40;1.00;;;;;;4937400;29;20465;-83
2023/06/21 01:28:59;;;;;;;25.30;23.90;;;22.40;1.00;;;;;;4932305;29;20496;-81
2023/06/21 01:31:28;;;;;;;25.63;24.03;;;22.30;1.00;;;;;;4935051;29;20528;-82
2023/06/21 01:33:57;;;;;;;25.10;23.63;;;22.40;1.00;;;;;;4939720;29;20508;-83
2023/06/21 01:36:25;;;;;;;24.63;23.23;;;22.40;1.00;;;;;;4932848;29;20461;-82
2023/06/21 01:38:55;;;;;;;24.30;23.10;;;22.40;1.00;;;;;;4938288;29;20461;-82
2023/06/21 01:41:25;;;;;;;24.43;22.83;;;22.40;99.90;;;;;;4936983;29;21159;-84
2023/06/21 01:43:58;;;;;;;24.90;23.40;;;22.40;99.90;;;;;;4932311;29;20495;-85
2023/06/21 01:46:28;;;;;;;25.73;24.03;;;22.40;1.00;;;;;;4938671;29;20464;-82
2023/06/21 01:48:58;;;;;;;24.80;23.30;;;22.40;1.00;;;;;;4934949;29;20492;-82
2023/06/21 01:51:26;;;;;;;25.17;23.80;;;22.40;99.90;;;;;;4935206;29;20468;-81
2023/06/21 01:53:56;;;;;;;25.17;23.87;;;22.40;1.00;;;;;;4940309;29;20488;-80
2023/06/21 01:56:26;;;;;;;26.73;24.93;;;22.40;1.00;;;;;;4939841;29;21095;-83
2023/06/21 01:58:54;;;;;;;25.20;23.47;;;22.40;1.00;;;;;;4931434;29;21238;-83
2023/06/21 02:01:28;;;;;;;25.43;23.90;;;22.40;1.00;;;;;;4936034;29;21030;-81
2023/06/21 02:03:59;;;;;;;24.13;22.90;;;22.30;1.00;;;;;;4940965;28;20490;-82
2023/06/21 02:06:30;;;;;;;24.23;22.93;;;22.20;1.00;;;;;;4934917;29;20516;-82
2023/06/21 02:09:00;;;;;;;25.77;24.37;;;22.20;1.00;;;;;;4937502;29;20479;-82
2023/06/21 02:11:29;;;;;;;24.87;23.60;;;22.30;1.00;;;;;;4939643;29;20469;-82
2023/06/21 02:13:57;;;;;;;24.30;23.00;;;22.20;1.00;;;;;;4936316;29;20538;-82
2023/06/21 02:16:28;;;;;;;26.23;24.43;;;22.20;1.00;;;;;;4931086;29;20453;-80
2023/06/21 02:18:56;;;;;;;24.67;23.47;;;22.00;1.00;;;;;;4934058;29;20807;-82
2023/06/21 02:21:24;;;;;;;24.90;23.37;;;22.00;22.60;;;;;;4933726;29;20472;-81
2023/06/21 02:23:52;;;;;;;25.40;23.93;;;22.10;1.00;;;;;;4938484;29;20473;-84
2023/06/21 02:26:20;;;;;;;25.30;23.90;;;22.10;1.00;;;;;;4932926;29;20508;-84
2023/06/21 02:28:49;;;;;;;24.50;23.20;;;22.10;1.00;;;;;;4934405;29;21105;-85
2023/06/21 02:31:17;;;;;;;24.90;23.40;;;22.00;1.00;;;;;;4931337;29;20461;-83
2023/06/21 02:33:48;;;;;;;24.90;23.40;;;21.90;1.00;;;;;;4933570;29;20488;-82
2023/06/21 02:36:17;;;;;;;24.23;23.03;;;22.00;1.00;;;;;;4934192;29;20456;-83
2023/06/21 02:38:45;;;;;;;24.97;23.47;;;21.90;1.00;;;;;;4935868;29;20462;-81
2023/06/21 02:41:13;;;;;;;24.37;22.77;;;21.90;38.40;;;;;;4933892;29;20468;-81
2023/06/21 02:43:41;;;;;;;25.87;24.47;;;21.90;10.20;;;;;;4936880;28;20472;-82
2023/06/21 02:46:09;;;;;;;24.87;23.57;;;22.00;1.00;;;;;;4939757;29;20456;-82
2023/06/21 02:48:37;;;;;;;24.60;23.30;;;21.90;1.00;;;;;;4935140;29;20568;-80
2023/06/21 02:51:07;;;;;;;24.57;23.27;;;21.90;44.10;;;;;;4935675;29;20461;-82
2023/06/21 02:53:35;;;;;;;24.47;23.20;;;21.90;1.00;;;;;;4939165;28;20476;-81
2023/06/21 02:56:03;;;;;;;25.23;23.73;;;21.90;1.00;;;;;;4940973;29;20463;-84
2023/06/21 02:58:32;;;;;;;25.13;23.70;;;21.90;3.20;;;;;;4938626;29;20476;-81
2023/06/21 03:01:01;;;;;;;25.43;24.07;;;21.90;11.40;;;;;;4938176;29;20452;-84
2023/06/21 03:03:29;;;;;;;24.83;23.53;;;21.90;99.90;;;;;;4933301;29;20480;-81
2023/06/21 03:05:58;;;;;;;25.70;24.10;;;21.90;90.30;;;;;;4935471;29;20453;-83
2023/06/21 03:08:27;;;;;;;26.27;24.67;;;21.90;99.90;;;;;;4933659;29;20490;-83
2023/06/21 03:10:55;;;;;;;24.63;23.33;;;21.80;99.90;;;;;;4933653;29;21054;-83
2023/06/21 03:13:23;;;;;;;25.90;24.37;;;21.90;99.90;;;;;;4939294;28;20480;-83
2023/06/21 03:15:52;;;;;;;24.50;23.13;;;21.90;99.90;;;;;;4936040;29;20456;-84
2023/06/21 03:18:20;;;;;;;25.60;24.20;;;21.90;99.90;;;;;;4927426;29;20543;-83
2023/06/21 03:20:50;;;;;;;24.07;22.77;;;21.90;99.90;;;;;;4929209;29;20822;-83
2023/06/21 03:23:18;;;;;;;25.57;24.00;;;21.80;99.90;;;;;;4929248;29;20508;-84
2023/06/21 03:25:48;;;;;;;25.40;24.00;;;21.80;99.90;;;;;;4937967;29;21071;-83
2023/06/21 03:28:16;;;;;;;26.50;24.83;;;21.80;1.00;;;;;;4933144;29;20463;-82
2023/06/21 03:30:44;;;;;;;25.83;24.10;;;21.90;99.90;;;;;;4929198;29;21527;-81
2023/06/21 03:33:12;;;;;;;25.30;23.80;;;22.00;99.90;;;;;;4937017;28;20579;-81
2023/06/21 03:35:40;;;;;;;25.43;23.83;;;22.00;99.90;;;;;;4933750;29;20457;-83
2023/06/21 03:38:08;;;;;;;25.17;23.93;;;22.00;99.90;;;;;;4931804;29;20632;-82
2023/06/21 03:40:36;;;;;;;25.30;23.80;;;21.90;99.90;;;;;;4936961;29;21122;-82
2023/06/21 03:43:06;;;;;;;25.90;24.50;;;21.90;99.90;;;;;;4936314;29;20473;-83
2023/06/21 03:45:34;;;;;;;27.53;25.83;;;21.80;99.90;;;;;;4932686;29;20796;-82
2023/06/21 03:48:05;;;;;;;26.60;24.83;;;21.80;1.00;;;;;;4933029;29;20461;-82
2023/06/21 03:50:34;;;;;;;25.73;24.03;;;21.80;1.00;;;;;;4930740;29;20510;-82
2023/06/21 03:53:03;;;;;;;24.87;23.27;;;21.90;99.90;;;;;;4934354;29;20927;-81
2023/06/21 03:55:31;;;;;;;25.90;24.00;;;21.70;1.00;;;;;;4933386;29;20532;-82
2023/06/21 03:58:00;;;;;;;25.23;23.70;;;21.70;99.90;;;;;;4932856;29;20461;-79
2023/06/21 04:00:29;;;;;;;25.73;24.30;;;21.70;99.90;;;;;;4930922;29;20457;-81
2023/06/21 04:02:58;;;;;;;26.97;25.37;;;21.60;1.00;;;;;;4925806;29;20484;-81
2023/06/21 04:05:26;;;;;;;26.90;25.17;;;21.70;1.00;;;;;;4928821;29;20508;-84
2023/06/21 04:07:55;;;;;;;26.13;24.70;;;21.60;99.90;;;;;;4929617;28;20989;-82
2023/06/21 04:10:23;;;;;;;26.73;24.73;;;21.60;1.00;;;;;;4940245;29;20483;-82
2023/06/21 04:12:51;;;;;;;26.30;24.70;;;21.60;99.90;;;;;;4942502;28;20494;-82
2023/06/21 04:15:20;;;;;;;26.40;24.90;;;21.50;99.90;;;;;;4938202;29;20471;-83
2023/06/21 04:17:50;;;;;;;25.50;24.10;;;21.50;99.90;;;;;;4935398;29;20550;-83
2023/06/21 04:20:18;;;;;;;26.30;24.70;;;21.50;99.90;;;;;;4938385;29;21012;-81
2023/06/21 04:22:47;;;;;;;25.73;24.33;;;21.60;99.90;;;;;;4933179;29;20480;-82
2023/06/21 04:25:16;;;;;;;26.47;24.87;;;21.50;1.00;;;;;;4941977;29;20552;-82
2023/06/21 04:27:45;;;;;;;26.17;24.53;;;21.50;99.90;;;;;;4940154;29;20456;-79
2023/06/21 04:30:14;;;;;;;25.60;23.90;;;21.60;99.90;;;;;;4932020;29;20552;-80
2023/06/21 04:32:45;;;;;;;25.63;24.10;;;21.60;99.90;;;;;;4939583;29;20547;-77
2023/06/21 04:35:17;;;;;;;25.80;24.10;;;21.60;1.00;;;;;;4935269;29;20472;-77
2023/06/21 04:37:47;;;;;;;24.87;23.40;;;21.70;1.00;;;;;;4938334;29;20538;-77
2023/06/21 04:40:17;;;;;;;24.70;23.40;;;21.70;99.90;;;;;;4932564;29;21250;-76
2023/06/21 04:42:48;;;;;;;25.07;23.77;;;21.80;99.90;;;;;;4935325;28;20556;-77
2023/06/21 04:45:17;;;;;;;24.40;23.20;;;21.80;1.00;;;;;;4930811;29;20515;-76
2023/06/21 04:47:46;;;;;;;24.90;23.30;;;21.80;99.90;;;;;;4930095;29;20458;-76
2023/06/21 04:50:17;;;;;;;26.20;24.50;;;21.80;99.90;;;;;;4933897;29;20600;-76
2023/06/21 04:52:48;;;;;;;26.57;25.10;;;21.90;30.80;;;;;;4934825;28;20579;-78
2023/06/21 04:55:18;;;;;;;25.87;24.57;;;21.90;25.80;;;;;;4930160;29;21179;-75
2023/06/21 04:57:49;;;;;;;25.43;24.13;;;22.00;99.90;;;;;;4926704;29;20471;-76
2023/06/21 05:00:18;;;;;;;24.87;23.67;;;21.90;17.60;;;;;;4924316;29;20457;-76
2023/06/21 05:02:47;;;;;;;23.90;22.70;;;22.00;1.00;;;;;;4933389;29;20487;-75
2023/06/21 05:05:16;;;;;;;24.30;23.00;;;21.90;99.90;;;;;;4938644;29;20461;-76
2023/06/21 05:07:46;;;;;;;24.10;22.80;;;21.90;1.00;;;;;;4941767;29;20501;-77
2023/06/21 05:10:14;;;;;;;23.40;22.20;;;22.00;99.90;;;;;;4927745;29;20484;-77
2023/06/21 05:12:43;;;;;;;24.07;22.67;;;21.90;99.90;;;;;;4938278;28;20476;-76
2023/06/21 05:15:11;;;;;;;24.30;23.00;;;22.00;99.90;;;;;;4933076;29;20966;-76
2023/06/21 05:17:39;;;;;;;24.10;22.90;;;22.00;99.90;;;;;;4933117;29;20662;-77
2023/06/21 05:20:09;;;;;;;24.23;22.93;;;22.00;99.90;;;;;;4931228;29;20452;-81
2023/06/21 05:22:44;;;;;;;24.57;23.17;;;22.00;1.00;;;;;;4938920;29;20536;-80
2023/06/21 05:25:31;;;;;;;22.93;21.77;;;22.00;99.90;;;;;;4938596;29;20469;-80
2023/06/21 05:28:41;;;;;;;24.00;22.80;;;22.00;1.00;;;;;;4935598;29;20551;-81
2023/06/21 05:31:10;;;;;;;24.63;23.20;;;22.10;99.90;;;;;;4931303;29;20595;-81
2023/06/21 05:33:38;;;;;;;23.80;22.43;;;22.10;1.00;;;;;;4941272;28;20925;-82
2023/06/21 05:36:06;;;;;;;24.57;23.27;;;22.20;79.10;;;;;;4940141;29;20946;-82
2023/06/21 05:38:36;;;;;;;24.50;23.30;;;22.20;99.90;;;;;;4941505;29;20947;-81
2023/06/21 05:41:04;;;;;;;24.37;23.20;;;22.20;1.00;;;;;;4944252;29;20531;-80
2023/06/21 05:43:32;;;;;;;25.37;23.93;;;22.10;1.00;;;;;;4942192;29;21006;-82
2023/06/21 05:46:00;;;;;;;25.33;23.53;;;22.10;1.00;;;;;;4941831;29;21024;-82
2023/06/21 05:48:29;;;;;;;25.03;23.50;;;22.10;99.90;;;;;;4937812;29;20470;-82
2023/06/21 05:50:57;;;;;;;26.13;24.50;;;22.10;99.90;;;;;;4941713;29;20479;-82
2023/06/21 05:53:25;;;;;;;24.27;23.13;;;22.20;99.90;;;;;;4937054;28;20905;-80
2023/06/21 05:55:56;;;;;;;23.80;22.60;;;22.20;99.90;;;;;;4938846;29;20468;-81
2023/06/21 05:58:24;;;;;;;25.10;23.60;;;22.20;1.00;;;;;;4943701;29;20454;-82
2023/06/21 06:00:53;;;;;;;25.13;23.93;;;22.20;99.90;;;;;;4942486;29;20454;-82
2023/06/21 06:03:21;;;;;;;26.70;25.17;;;22.20;99.90;;;;;;4937709;29;20492;-81
2023/06/21 06:05:50;;;;;;;26.43;24.87;;;22.20;1.00;;;;;;4940553;29;20482;-81
2023/06/21 06:08:18;;;;;;;25.67;23.93;;;22.20;42.60;;;;;;4941787;29;20456;-81
2023/06/21 06:10:46;;;;;;;24.90;23.40;;;22.30;1.00;;;;;;4944595;29;20484;-81
2023/06/21 06:13:16;;;;;;;24.43;23.13;;;22.20;99.90;;;;;;4940915;29;20516;-81
2023/06/21 06:15:44;;;;;;;25.57;24.13;;;22.20;99.90;;;;;;4941465;29;20457;-81
2023/06/21 06:18:12;;;;;;;25.30;23.90;;;22.20;1.00;;;;;;4942066;29;20483;-81
2023/06/21 06:20:41;;;;;;;24.97;23.30;;;22.30;1.00;;;;;;4938966;29;20946;-81
2023/06/21 06:23:11;;;;;;;25.63;24.23;;;22.30;1.00;;;;;;4936739;29;20572;-82
2023/06/21 06:25:40;;;;;;;25.53;24.03;;;22.40;1.00;;;;;;4936805;29;20520;-81
2023/06/21 06:28:08;;;;;;;24.47;23.27;;;22.40;1.00;;;;;;4940364;29;20555;-82
2023/06/21 06:30:37;;;;;;;25.50;23.93;;;22.40;99.90;;;;;;4939755;29;20829;-81
2023/06/21 06:33:05;;;;;;;24.27;23.07;;;22.50;99.90;;;;;;4938827;29;20483;-81
2023/06/21 06:35:34;;;;;;;26.30;24.90;;;22.50;99.90;;;;;;4936229;29;20456;-82
2023/06/21 06:38:02;;;;;;;25.60;24.20;;;22.60;99.90;;;;;;4939601;29;20607;-81
2023/06/21 06:40:30;;;;;;;24.60;23.40;;;22.60;99.90;;;;;;4940110;29;20461;-82
2023/06/21 06:42:58;;;;;;;26.20;24.70;;;22.70;99.90;;;;;;4938558;28;20473;-82
2023/06/21 06:45:26;;;;;;;25.10;23.60;;;22.80;99.90;;;;;;4940430;29;20472;-82
2023/06/21 06:47:56;;;;;;;24.70;23.10;;;22.80;99.90;;;;;;4942685;29;20468;-81
2023/06/21 06:50:24;;;;;;;25.40;23.93;;;22.80;99.90;;;;;;4940006;29;20818;-81
2023/06/21 06:52:52;;;;;;;24.33;23.03;;;22.90;97.70;;;;;;4936941;29;20492;-81
2023/06/21 06:55:21;;;;;;;25.13;23.43;;;22.90;99.90;;;;;;4938356;29;20459;-82
2023/06/21 06:57:49;;;;;;;25.00;23.60;;;23.00;99.90;;;;;;4943194;29;20453;-80
2023/06/21 07:00:23;;;;;;;25.07;23.73;;;23.10;99.90;;;;;;4934823;29;21178;-82
2023/06/21 07:02:56;;;;;;;25.00;23.50;;;23.20;99.90;;;;;;4935791;29;20492;-81
2023/06/21 07:05:26;;;;;;;23.60;22.40;;;23.20;99.90;;;;;;4937543;29;20511;-81
2023/06/21 07:07:56;;;;;;;23.20;22.00;;;23.30;75.50;;;;;;4940561;29;20798;-82
2023/06/21 07:10:24;;;;;;;24.03;22.83;;;23.30;99.90;;;;;;4935673;29;20461;-81
2023/06/21 07:12:53;;;;;;;23.20;22.00;;;23.40;1.00;;;;;;4932411;29;20570;-81
2023/06/21 07:15:22;;;;;;;23.90;22.63;;;23.50;1.00;;;;;;4931934;29;21252;-83
2023/06/21 07:17:53;;;;;;;22.87;21.57;;;23.50;1.00;;;;;;4940692;29;20917;-83
2023/06/21 07:20:22;;;;;;;23.20;22.10;;;23.60;1.00;;;;;;4937825;29;20931;-83
2023/06/21 07:22:51;;;;;;;23.57;22.27;;;23.60;1.00;;;;;;4939429;29;20535;-82
2023/06/21 07:25:19;;;;;;;22.50;21.30;;;23.70;1.00;;;;;;4917802;29;20830;-80
2023/06/21 07:27:48;;;;;;;23.20;22.10;;;23.70;1.00;;;;;;4928742;29;20568;-79
2023/06/21 07:30:16;;;;;;;23.10;21.83;;;23.70;1.00;;;;;;4931083;29;20503;-81
2023/06/21 07:32:46;;;;;;;22.50;21.40;;;23.70;1.00;;;;;;4932080;29;20516;-81
2023/06/21 07:35:15;;;;;;;22.80;21.67;;;23.80;1.00;;;;;;4931415;29;20497;-79
2023/06/21 07:37:44;;;;;;;22.70;21.50;;;23.70;1.00;;;;;;4929178;29;21008;-81
2023/06/21 07:40:14;;;;;;;23.17;21.63;;;23.70;1.00;;;;;;4932816;29;20472;-80
2023/06/21 07:42:43;;;;;;;23.40;22.00;;;23.70;1.00;;;;;;4937085;28;20572;-80
2023/06/21 07:45:12;;;;;;;23.20;22.10;;;23.70;1.00;;;;;;4930969;29;20524;-82
2023/06/21 07:47:41;;;;;;;21.90;20.83;;;23.70;1.00;;;;;;4932974;29;20548;-80
2023/06/21 07:50:10;;;;;;;22.47;21.40;;;23.70;1.00;;;;;;4933992;29;20476;-81
2023/06/21 07:52:49;;;;;;;23.17;21.90;;;23.70;1.00;;;;;;4931496;28;20480;-80
2023/06/21 07:55:19;;;;;;;22.37;21.27;;;23.80;1.00;;;;;;4937213;29;20460;-81
2023/06/21 07:57:48;;;;;;;22.40;21.30;;;23.80;1.00;;;;;;4935697;29;20472;-81
2023/06/21 08:00:17;;;;;;;22.80;21.70;;;23.80;1.00;;;;;;4936928;29;20511;-81
2023/06/21 08:02:45;;;;;;;23.30;22.13;;;23.80;1.00;;;;;;4935652;28;20549;-81
2023/06/21 08:05:14;;;;;;;23.03;21.93;;;23.80;1.00;;;;;;4939482;29;20465;-82
2023/06/21 08:07:43;;;;;;;23.40;22.20;;;23.80;1.00;;;;;;4939052;29;20467;-80
2023/06/21 08:10:11;;;;;;;22.40;21.20;;;23.80;1.00;;;;;;4933976;29;21100;-79
2023/06/21 08:12:40;;;;;;;22.90;21.80;;;23.80;1.00;;;;;;4933413;29;20503;-82
2023/06/21 08:15:09;;;;;;;23.53;22.10;;;23.80;1.00;;;;;;4933308;29;20461;-80
2023/06/21 08:17:37;;;;;;;23.07;21.87;;;23.80;1.00;;;;;;4931723;29;20461;-81
2023/06/21 08:20:07;;;;;;;23.57;22.10;;;23.80;1.00;;;;;;4922796;29;20472;-80
2023/06/21 08:22:35;;;;;;;22.43;21.07;;;23.80;1.00;;;;;;4930555;28;21015;-81
2023/06/21 08:25:04;;;;;;;22.87;21.47;;;23.80;1.00;;;;;;4929461;29;20469;-79
2023/06/21 08:27:32;;;;;;;22.47;21.17;;;23.70;1.00;;;;;;4935222;29;20471;-81
2023/06/21 08:30:01;;;;;;;22.43;21.20;;;23.70;1.00;;;;;;4933628;29;24538;-79
2023/06/21 08:32:29;;;;;;;22.47;21.27;;;23.70;1.00;;;;;;4934060;29;20511;-78
2023/06/21 08:34:58;;;;;;;22.47;21.37;;;23.70;1.00;;;;;;4935980;29;20556;-79
2023/06/21 08:37:26;;;;;;;22.23;21.10;;;23.70;1.00;;;;;;4932644;29;20453;-81
2023/06/21 08:39:56;;;;;;;22.07;20.77;;;23.70;1.00;;;;;;4936899;29;20467;-81
2023/06/21 08:42:25;;;;;;;22.67;21.50;;;23.60;1.00;;;;;;4931536;29;20476;-82
2023/06/21 08:44:54;;;;;;;21.50;20.40;;;23.60;1.00;;;;;;4935267;29;20487;-83
2023/06/21 08:47:26;;;;;;;22.90;21.53;;;23.60;1.00;;;;;;4928019;29;20475;-85
2023/06/21 08:49:57;;;;;;;22.83;21.60;;;23.60;1.00;;;;;;4934200;29;20495;-82
2023/06/21 08:52:28;;;;;;;23.10;22.00;;;23.50;1.00;;;;;;4935895;29;20655;-81
2023/06/21 08:55:01;;;;;;;22.20;21.20;;;23.50;1.00;;;;;;4937842;29;20464;-82
2023/06/21 08:58:20;;;;;;;23.93;22.60;;;23.40;1.00;;;;;;4936151;29;20460;-81
2023/06/21 09:01:13;;;;;;;25.47;23.97;;;23.40;1.00;;;;;;4932661;29;20563;-82
2023/06/21 09:03:55;;;;;;;23.40;22.30;;;23.20;99.90;;;;;;4930271;29;20552;-82
2023/06/21 09:07:20;;;;;;;24.50;23.00;;;23.10;99.90;;;;;;4931842;29;21097;-80
2023/06/21 09:09:51;;;;;;;25.00;23.47;;;23.00;1.00;;;;;;4935898;29;20955;-81
2023/06/21 09:12:20;;;;;;;24.27;22.70;;;22.90;99.90;;;;;;4937166;28;20480;-80
2023/06/21 09:44:55;;;;;;;25.87;24.37;;;22.30;49.40;;;;;;5465767;23;20599;-83
2023/06/21 09:55:48;;;;;;;25.53;23.63;;;22.20;99.90;;;;;;4947316;29;20591;-82
2023/06/21 09:58:17;;;;;;;25.70;24.10;;;22.20;1.00;;;;;;4947280;29;20487;-83
2023/06/21 10:00:46;;;;;;;25.70;24.10;;;22.20;99.90;;;;;;4945904;29;20478;-83
2023/06/21 10:03:15;;;;;;;25.37;23.87;;;22.20;1.00;;;;;;4947798;29;20543;-84
2023/06/21 10:05:59;;;;;;;26.87;25.17;;;22.30;99.90;;;;;;4950660;28;20467;-81
2023/06/21 10:08:31;;;;;;;25.70;24.20;;;22.30;99.90;;;;;;4946033;29;20464;-82
2023/06/21 10:11:01;;;;;;;25.60;24.10;;;22.30;99.90;;;;;;4952054;29;20456;-84
2023/06/21 10:13:31;;;;;;;25.37;23.90;;;22.20;48.10;;;;;;4942431;28;20853;-80
2023/06/21 10:16:03;;;;;;;26.03;24.50;;;22.20;14.60;;;;;;4946191;28;20532;-83
2023/06/21 10:18:33;;;;;;;25.33;23.93;;;22.20;41.30;;;;;;4945784;29;20464;-82
2023/06/21 10:21:03;;;;;;;25.73;24.43;;;22.10;39.20;;;;;;4947018;29;20886;-84
2023/06/21 10:23:34;;;;;;;26.83;25.03;;;22.10;99.90;;;;;;4951647;29;21209;-83
2023/06/21 10:26:05;;;;;;;24.90;23.60;;;22.20;45.50;;;;;;4947946;29;20614;-81
2023/06/21 10:28:37;;;;;;;25.40;24.03;;;22.20;1.00;;;;;;4952154;29;20483;-83
2023/06/21 10:31:10;;;;;;;25.13;23.63;;;22.30;45.30;;;;;;4943680;29;20460;-80
2023/06/21 10:33:38;;;;;;;24.90;23.50;;;22.30;1.00;;;;;;4944681;29;20499;-82
2023/06/21 10:36:59;;;;;;;24.40;23.10;;;22.30;99.90;;;;;;4941123;29;20464;-81
2023/06/21 10:40:36;;;;;;;24.50;23.20;;;22.30;99.90;;;;;;4946509;29;20464;-84
2023/06/21 10:52:09;;;;;;;25.27;23.80;;;22.40;99.90;;;;;;4905430;29;20461;-83
2023/06/21 10:58:35;;;;;;;24.60;23.20;;;22.40;99.90;;;;;;4848132;29;20441;-82
2023/06/21 11:01:21;;;;;;;24.83;23.50;;;22.50;99.90;;;;;;4845815;29;20469;-81
2023/06/21 11:08:11;;;;;;;25.60;23.80;;;22.70;99.90;;;;;;4845928;29;20444;-82
2023/06/21 11:10:42;;;;;;;26.40;24.77;;;22.80;99.90;;;;;;4916975;29;20457;-79
2023/06/21 11:13:15;;;;;;;25.17;23.87;;;22.80;1.00;;;;;;4938175;28;21021;-81
2023/06/21 11:20:51;;;;;;;24.70;23.20;;;22.90;99.90;;;;;;4949290;29;20459;-82
2023/06/21 11:36:20;;;;;;;24.90;23.33;;;23.50;99.90;;;;;;4942284;29;20452;-81
2023/06/21 11:43:53;;;;;;;25.53;23.73;;;23.70;99.90;;;;;;4904000;29;20500;-82
2023/06/21 11:46:25;;;;;;;25.53;23.80;;;23.70;99.90;;;;;;4901766;29;21007;-82
2023/06/21 11:48:59;;;;;;;25.80;24.03;;;23.70;99.90;;;;;;4905385;29;20575;-82
2023/06/21 11:59:51;;;;;;;23.80;22.40;;;24.00;21.80;;;;;;4867885;29;20564;-81
2023/06/21 12:02:21;;;;;;;24.20;23.00;;;24.00;99.90;;;;;;4901627;29;20458;-84
2023/06/21 12:04:50;;;;;;;22.67;21.57;;;24.10;1.00;;;;;;4905744;29;20458;-82
2023/06/21 12:07:20;;;;;;;23.00;21.80;;;24.10;1.00;;;;;;4938840;28;20475;-82
2023/06/21 12:09:50;;;;;;;23.37;22.07;;;24.20;99.90;;;;;;4943617;29;20551;-82
2023/06/21 12:12:51;;;;;;;24.63;23.13;;;24.20;99.90;;;;;;5033731;23;20460;31
2023/06/21 12:19:39;;;;;;;23.40;22.30;;;24.30;1.00;;;;;;4818520;29;21157;-80
2023/06/21 12:23:03;;;;;;;23.60;22.40;;;24.30;99.90;;;;;;4824620;29;20476;-85
2023/06/21 12:26:15;;;;;;;22.40;21.40;;;24.30;99.90;;;;;;4822684;29;20643;-83
2023/06/21 12:29:12;;;;;;;22.97;21.83;;;24.40;48.50;;;;;;4827158;29;20496;-83
2023/06/21 12:31:48;;;;;;;23.33;22.13;;;24.30;1.00;;;;;;4828117;29;20466;-81
2023/06/21 12:34:17;;;;;;;22.77;21.53;;;24.40;1.00;;;;;;4827965;29;20489;-81
2023/06/21 12:37:30;;;;;;;;;;;;;;;;;;;;;
2023/06/21 12:41:00;;;;;;;22.73;21.67;;;24.50;3.60;;;;;;4792896;29;20518;-80
2023/06/21 12:43:43;;;;;;;24.07;22.80;;;24.70;23.00;;;;;;4777659;29;21042;-81
2023/06/21 12:46:12;;;;;;;23.20;21.97;;;24.70;1.00;;;;;;4771312;29;20836;-81
2023/06/21 12:48:53;;;;;;;24.33;23.07;;;24.80;17.30;;;;;;4771241;29;20887;-82
2023/06/21 12:51:23;;;;;;;24.50;23.13;;;24.90;1.00;;;;;;4766574;29;20884;-83
2023/06/21 12:53:57;;;;;;;23.80;22.50;;;24.90;1.40;;;;;;4794322;29;20999;-82
2023/06/21 12:56:37;;;;;;;24.57;23.30;;;24.90;1.00;;;;;;4807255;29;20478;-81
2023/06/21 12:59:17;;;;;;;24.50;23.20;;;25.00;1.00;;;;;;4804614;29;20482;-80
2023/06/21 13:01:46;;;;;;;23.73;22.37;;;25.10;1.00;;;;;;4805568;29;20466;-82
2023/06/21 13:12:50;;;;;;;24.30;22.90;;;25.20;1.00;;;;;;4805363;29;20546;-81
2023/06/21 13:15:43;;;;;;;23.47;22.37;;;25.10;1.00;;;;;;4805887;29;21043;-83
2023/06/21 13:18:12;;;;;;;24.10;22.70;;;25.20;1.00;;;;;;4840956;29;20453;-82
2023/06/21 13:20:40;;;;;;;22.90;21.77;;;25.20;1.00;;;;;;4858245;29;20467;-81
2023/06/21 13:23:16;;;;;;;24.90;23.20;;;25.20;1.00;;;;;;4860964;29;20576;-83
2023/06/21 13:25:44;;;;;;;24.50;23.00;;;25.20;1.00;;;;;;4859009;29;20456;-84
2023/06/21 13:28:25;;;;;;;23.70;22.23;;;25.30;1.00;;;;;;4863164;29;20476;-82
2023/06/21 13:30:53;;;;;;;22.70;21.60;;;25.20;1.00;;;;;;4862694;29;20979;-82
2023/06/21 13:33:25;;;;;;;22.53;21.33;;;25.30;1.00;;;;;;4858051;29;20518;-82
2023/06/21 13:36:04;;;;;;;23.10;22.00;;;25.30;1.00;;;;;;4863338;29;21024;-83
2023/06/21 13:38:36;;;;;;;23.03;21.83;;;25.40;1.00;;;;;;4889652;29;20468;-82
2023/06/21 13:41:09;;;;;;;23.90;22.53;;;25.30;1.00;;;;;;4890518;29;21064;-83
2023/06/21 13:43:44;;;;;;;22.47;21.37;;;25.30;1.00;;;;;;4864262;29;20479;-83
2023/06/21 13:46:12;;;;;;;23.20;22.00;;;25.30;1.00;;;;;;4858712;29;20802;-83
2023/06/21 13:48:52;;;;;;;22.60;21.33;;;25.30;1.00;;;;;;4859301;29;20467;-81
2023/06/21 13:51:24;;;;;;;24.43;23.03;;;25.40;1.00;;;;;;4861803;29;21025;-84
2023/06/21 13:53:57;;;;;;;24.03;22.60;;;25.40;1.00;;;;;;4862146;29;20579;-83
2023/06/21 13:56:28;;;;;;;22.67;21.67;;;25.40;1.00;;;;;;4858849;29;20575;-84
2023/06/21 13:58:57;;;;;;;22.70;21.40;;;25.40;1.00;;;;;;4864097;29;20519;-80
2023/06/21 14:01:26;;;;;;;22.73;21.60;;;25.40;1.00;;;;;;4860185;29;20464;-81
2023/06/21 14:03:54;;;;;;;22.80;21.13;;;25.40;1.00;;;;;;4860812;29;20514;-82
2023/06/21 14:06:22;;;;;;;22.87;21.57;;;25.40;1.00;;;;;;4861413;29;20463;-81
2023/06/21 14:08:50;;;;;;;22.53;21.43;;;25.40;1.00;;;;;;4861740;29;20466;-84
2023/06/21 14:11:19;;;;;;;23.03;21.67;;;25.40;1.00;;;;;;4860115;29;20464;-81
2023/06/21 14:13:49;;;;;;;22.90;21.80;;;25.40;1.00;;;;;;4857706;29;20807;-80
2023/06/21 14:16:19;;;;;;;22.23;21.27;;;25.30;1.00;;;;;;4862398;29;20472;-80
2023/06/21 14:18:47;;;;;;;22.20;21.10;;;25.40;1.00;;;;;;4860024;29;21057;-81
2023/06/21 14:21:16;;;;;;;23.33;22.23;;;25.50;1.00;;;;;;4859464;29;20466;-82
2023/06/21 14:23:45;;;;;;;23.40;22.00;;;25.50;1.00;;;;;;4858948;29;22030;-82
2023/06/21 14:26:13;;;;;;;22.90;21.77;;;25.50;1.00;;;;;;4859326;29;20461;-82
2023/06/21 14:28:42;;;;;;;22.13;21.13;;;25.50;1.00;;;;;;4861515;29;20486;-83
2023/06/21 14:31:11;;;;;;;22.43;21.40;;;25.50;1.00;;;;;;4858553;29;20473;-83
2023/06/21 14:33:40;;;;;;;22.67;21.57;;;25.50;1.00;;;;;;4865415;29;20476;-80
2023/06/21 14:36:09;;;;;;;22.20;21.10;;;25.50;1.00;;;;;;4861428;29;20492;-80